Shunk, Pennsylvania
Current Conditions -  °F | °C
As of 9:54 AM on Thursday 18 Dec 2014 (Local Time) from KIPT Reporting Station
Broken Clouds Broken Clouds  
Wind Chill: 28°   Ceiling: 3700
Heat Index: 36°   Visibility: 10mi
Dew Point: 21°   Wind: 12mph
Humidity: 55%   Direction: 300°WNW
Pressure: 30.07"   Gusts: NA
Location:  41.55°N, 76.74°W
Report Text: KIPT 181454Z 30010KT 10SM BKN037 02/M06 A3007 RMK AO2 SLP187 T00221061 50005
Loading
Personal Weather Stations






























Interactive Weather Map New forecast layout! Learn more

10-Day Weather Forecast

Advertisements
Track Severe Weather on mobile